createdAt,value
2019-03-15T00:00:47.829Z,2.92
2019-03-15T00:03:17.227Z,2.83
2019-03-15T00:05:46.607Z,2.70
2019-03-15T00:08:16.027Z,2.52
2019-03-15T00:10:45.489Z,2.85
2019-03-15T00:13:14.943Z,2.27
2019-03-15T00:15:44.419Z,2.35
2019-03-15T00:18:13.992Z,2.55
2019-03-15T00:20:43.420Z,2.60
2019-03-15T00:23:12.980Z,2.80
2019-03-15T00:25:42.486Z,2.67
2019-03-15T00:28:11.943Z,2.55
2019-03-15T00:30:41.335Z,2.62
2019-03-15T00:33:10.831Z,2.45
2019-03-15T00:35:40.227Z,2.98
2019-03-15T00:38:09.628Z,2.58
2019-03-15T00:40:38.999Z,3.08
2019-03-15T00:43:08.395Z,2.72
2019-03-15T00:45:37.855Z,2.85
2019-03-15T00:48:07.276Z,2.70
2019-03-15T00:50:36.786Z,2.85
2019-03-15T00:53:06.177Z,3.37
2019-03-15T00:55:35.579Z,2.37
2019-03-15T00:58:05.044Z,3.05
2019-03-15T01:00:34.443Z,2.92
2019-03-15T01:03:03.823Z,3.02
2019-03-15T01:05:47.009Z,3.60
2019-03-15T01:08:16.427Z,3.15
2019-03-15T01:10:45.897Z,2.67
2019-03-15T01:13:16.613Z,2.75
2019-03-15T01:15:45.990Z,2.87
2019-03-15T01:18:15.406Z,3.80
2019-03-15T01:20:45.830Z,2.80
2019-03-15T01:23:15.377Z,3.02
2019-03-15T01:25:44.746Z,2.58
2019-03-15T01:28:14.123Z,3.22
2019-03-15T01:30:43.568Z,3.12
2019-03-15T01:33:13.020Z,2.62
2019-03-15T01:35:42.426Z,2.50
2019-03-15T01:38:11.822Z,3.60
2019-03-15T01:40:41.229Z,3.27
2019-03-15T01:43:10.637Z,2.98
2019-03-15T01:45:41.103Z,3.27
2019-03-15T01:48:10.578Z,3.40
2019-03-15T01:50:39.985Z,3.55
2019-03-15T01:53:09.475Z,3.33
2019-03-15T01:55:38.874Z,4.05
2019-03-15T01:58:08.279Z,3.72
2019-03-15T02:00:38.615Z,3.83
2019-03-15T02:03:09.308Z,3.35
2019-03-15T02:05:38.720Z,4.00
2019-03-15T02:08:08.127Z,3.75
2019-03-15T02:10:37.705Z,3.75
2019-03-15T02:13:07.233Z,3.75
2019-03-15T02:15:36.689Z,4.10
2019-03-15T02:18:06.223Z,3.40
2019-03-15T02:20:35.656Z,3.35
2019-03-15T02:23:05.139Z,4.22
2019-03-15T02:25:34.526Z,4.62
2019-03-15T02:28:04.099Z,3.02
2019-03-15T02:30:33.799Z,4.17
2019-03-15T02:33:03.373Z,3.47
2019-03-15T02:35:32.845Z,3.60
2019-03-15T02:38:02.297Z,3.65
2019-03-15T02:40:31.723Z,4.08
2019-03-15T02:43:01.429Z,3.45
2019-03-15T02:45:30.873Z,3.50
2019-03-15T02:48:00.274Z,3.33
2019-03-15T02:50:29.665Z,3.65
2019-03-15T02:52:59.123Z,2.95
2019-03-15T02:55:28.584Z,3.20
2019-03-15T02:57:58.018Z,3.15
2019-03-15T03:00:27.454Z,2.98
2019-03-15T03:02:56.905Z,3.22
2019-03-15T03:05:40.423Z,2.75
2019-03-15T03:08:09.894Z,3.92
2019-03-15T03:10:39.344Z,2.90
2019-03-15T03:13:10.732Z,4.08
2019-03-15T03:15:40.498Z,3.00
2019-03-15T03:18:10.148Z,3.02
2019-03-15T03:20:39.633Z,3.30
2019-03-15T03:23:09.038Z,3.30
2019-03-15T03:25:38.421Z,3.10
2019-03-15T03:28:07.832Z,3.30
2019-03-15T03:30:37.309Z,3.17
2019-03-15T03:33:06.718Z,3.27
2019-03-15T03:35:36.200Z,3.15
2019-03-15T03:38:05.704Z,3.00
2019-03-15T03:40:35.341Z,3.42
2019-03-15T03:43:07.159Z,2.67
2019-03-15T03:45:37.399Z,2.77
2019-03-15T03:48:06.837Z,2.75
2019-03-15T03:50:36.231Z,2.90
2019-03-15T03:53:06.354Z,2.92
2019-03-15T03:55:35.799Z,3.20
2019-03-15T03:58:05.211Z,3.17
2019-03-15T04:00:34.735Z,2.58
2019-03-15T04:03:04.135Z,2.27
2019-03-15T04:05:34.116Z,3.27
2019-03-15T04:08:03.634Z,2.62
2019-03-15T04:10:33.106Z,3.27
2019-03-15T04:13:02.504Z,2.55
2019-03-15T04:15:31.891Z,2.98
2019-03-15T04:18:01.375Z,2.87
2019-03-15T04:20:30.948Z,2.42
2019-03-15T04:23:00.436Z,2.90
2019-03-15T04:25:29.896Z,2.55
2019-03-15T04:27:59.333Z,3.00
2019-03-15T04:30:28.743Z,2.80
2019-03-15T04:32:59.456Z,2.95
2019-03-15T04:35:28.939Z,2.72
2019-03-15T04:37:58.317Z,2.67
2019-03-15T04:40:27.723Z,2.65
2019-03-15T04:42:57.102Z,3.37
2019-03-15T04:45:26.505Z,2.37
2019-03-15T04:47:55.910Z,2.52
2019-03-15T04:50:25.386Z,1.85
2019-03-15T04:53:14.176Z,2.12
2019-03-15T04:55:43.628Z,2.12
2019-03-15T04:58:13.207Z,2.52
2019-03-15T05:00:42.715Z,1.70
2019-03-15T05:03:12.144Z,2.00
2019-03-15T05:05:41.614Z,2.17
2019-03-15T05:08:11.015Z,1.85
2019-03-15T05:10:40.438Z,1.87
2019-03-15T05:13:09.899Z,1.70
2019-03-15T05:15:39.335Z,1.67
2019-03-15T05:18:08.722Z,1.67
2019-03-15T05:20:39.253Z,1.65
2019-03-15T05:23:08.875Z,1.27
2019-03-15T05:25:38.272Z,1.60
2019-03-15T05:28:07.683Z,1.35
2019-03-15T05:30:37.100Z,1.20
2019-03-15T05:33:06.538Z,1.45
2019-03-15T05:35:35.934Z,1.37
2019-03-15T05:38:05.395Z,1.30
2019-03-15T05:40:34.794Z,1.20
2019-03-15T05:43:04.201Z,1.10
2019-03-15T05:45:33.654Z,0.85
2019-03-15T05:48:03.031Z,1.00
2019-03-15T05:50:32.427Z,1.22
2019-03-15T05:53:02.047Z,0.85
2019-03-15T05:55:31.523Z,0.98
2019-03-15T05:58:00.902Z,1.10
2019-03-15T06:00:30.307Z,0.93
2019-03-15T06:03:01.411Z,1.10
2019-03-15T06:05:31.603Z,1.20
2019-03-15T06:08:01.477Z,1.00
2019-03-15T06:10:30.995Z,0.98
2019-03-15T06:13:00.455Z,1.00
2019-03-15T06:15:29.864Z,0.90
2019-03-15T06:17:59.303Z,0.78
2019-03-15T06:20:28.705Z,1.10
2019-03-15T06:22:58.171Z,0.80
2019-03-15T06:25:27.553Z,1.37
2019-03-15T06:27:56.942Z,1.10
2019-03-15T06:30:26.318Z,1.00
2019-03-15T06:32:55.724Z,1.05
2019-03-15T06:35:26.458Z,1.02
2019-03-15T06:37:55.889Z,1.15
2019-03-15T06:40:25.506Z,1.00
2019-03-15T06:42:54.892Z,1.30
2019-03-15T06:45:24.324Z,1.27
2019-03-15T06:47:53.779Z,1.30
2019-03-15T06:50:23.184Z,1.60
2019-03-15T06:52:52.624Z,1.32
2019-03-15T06:55:22.027Z,1.42
2019-03-15T06:57:51.433Z,1.62
2019-03-15T07:00:20.836Z,1.50
2019-03-15T07:03:04.115Z,1.62
2019-03-15T07:05:34.551Z,1.87
2019-03-15T07:08:04.090Z,2.42
2019-03-15T07:10:33.531Z,2.45
2019-03-15T07:13:03.004Z,2.58
2019-03-15T07:15:32.419Z,2.12
2019-03-15T07:18:01.811Z,2.52
2019-03-15T07:20:31.206Z,2.35
2019-03-15T07:23:00.598Z,2.27
2019-03-15T07:25:29.989Z,3.08
2019-03-15T07:27:59.629Z,3.52
2019-03-15T07:30:29.013Z,2.80
2019-03-15T07:32:59.220Z,2.75
2019-03-15T07:35:28.682Z,2.58
2019-03-15T07:37:58.222Z,3.30
2019-03-15T07:40:27.626Z,4.37
2019-03-15T07:42:59.870Z,3.17
2019-03-15T07:45:28.108Z,3.42
2019-03-15T07:47:57.487Z,3.70
2019-03-15T07:50:40.430Z,3.08
2019-03-15T07:53:09.844Z,3.00
2019-03-15T07:55:39.256Z,3.95
2019-03-15T07:58:08.660Z,3.83
2019-03-15T08:00:38.115Z,3.62
2019-03-15T08:03:07.620Z,3.55
2019-03-15T08:05:37.026Z,4.12
2019-03-15T08:08:07.654Z,3.67
2019-03-15T08:10:37.060Z,3.50
2019-03-15T08:13:06.467Z,3.15
2019-03-15T08:15:35.923Z,3.60
2019-03-15T08:18:05.427Z,3.80
2019-03-15T08:20:34.943Z,4.92
2019-03-15T08:23:04.436Z,3.50
2019-03-15T08:26:19.042Z,3.58
2019-03-15T08:28:48.430Z,3.72
2019-03-15T08:31:54.913Z,3.92
2019-03-15T08:34:24.331Z,5.10
2019-03-15T08:36:53.831Z,4.05
2019-03-15T08:39:23.295Z,3.92
2019-03-15T08:41:52.772Z,4.40
2019-03-15T08:44:22.243Z,4.53
2019-03-15T08:46:51.628Z,3.72
2019-03-15T08:49:22.099Z,4.22
2019-03-15T08:52:03.353Z,5.08
2019-03-15T08:55:05.043Z,4.58
2019-03-15T08:57:31.991Z,4.00
2019-03-15T09:00:03.291Z,3.75
2019-03-15T09:02:33.065Z,4.03
2019-03-15T09:05:02.487Z,4.75
2019-03-15T09:07:32.687Z,4.15
2019-03-15T09:10:03.661Z,4.35
2019-03-15T09:12:33.477Z,5.10
2019-03-15T09:15:03.023Z,3.98
2019-03-15T09:17:32.419Z,5.30
2019-03-15T09:20:01.815Z,4.47
2019-03-15T09:22:31.205Z,3.37
2019-03-15T09:25:01.747Z,4.12
2019-03-15T09:27:31.116Z,4.00
2019-03-15T09:30:00.522Z,4.95
2019-03-15T09:32:29.907Z,4.70
2019-03-15T09:34:59.304Z,4.22
2019-03-15T09:37:28.716Z,4.70
2019-03-15T09:39:59.143Z,4.50
2019-03-15T09:42:28.580Z,4.35
2019-03-15T09:44:58.055Z,4.80
2019-03-15T09:47:27.467Z,4.70
2019-03-15T09:49:56.843Z,4.75
2019-03-15T09:52:26.238Z,4.12
2019-03-15T09:54:55.635Z,4.50
2019-03-15T09:57:25.088Z,3.83
2019-03-15T09:59:54.483Z,5.80
2019-03-15T10:02:30.383Z,4.08
2019-03-15T10:04:54.973Z,4.30
2019-03-15T10:07:37.447Z,4.30
2019-03-15T10:09:56.018Z,4.00
2019-03-15T10:12:25.409Z,3.87
2019-03-15T10:14:54.802Z,4.50
2019-03-15T10:17:24.195Z,5.00
2019-03-15T10:19:53.622Z,4.30
2019-03-15T10:22:23.062Z,3.80
2019-03-15T10:24:52.462Z,4.40
2019-03-15T10:27:21.912Z,3.40
2019-03-15T10:29:51.355Z,4.72
2019-03-15T10:32:20.840Z,3.98
2019-03-15T10:34:50.218Z,4.15
2019-03-15T10:37:19.786Z,3.62
2019-03-15T10:39:49.171Z,3.45
2019-03-15T10:42:18.559Z,3.75
2019-03-15T10:44:48.126Z,3.00
2019-03-15T10:47:17.669Z,2.83
2019-03-15T10:49:47.071Z,3.00
2019-03-15T10:52:16.464Z,3.00
2019-03-15T10:55:09.914Z,3.15
2019-03-15T10:57:39.373Z,2.90
2019-03-15T11:00:16.742Z,3.30
2019-03-15T11:02:46.207Z,2.85
2019-03-15T11:05:15.670Z,2.80
2019-03-15T11:07:45.132Z,2.72
2019-03-15T11:10:38.546Z,2.60
2019-03-15T11:13:07.950Z,2.45
2019-03-15T11:15:37.348Z,2.52
2019-03-15T11:18:06.818Z,2.75
2019-03-15T11:20:36.298Z,2.77
2019-03-15T11:23:05.720Z,2.55
2019-03-15T11:25:35.139Z,3.00
2019-03-15T11:28:04.574Z,2.25
2019-03-15T11:30:33.942Z,2.35
2019-03-15T11:33:03.338Z,2.15
2019-03-15T11:35:32.789Z,2.40
2019-03-15T11:38:02.195Z,3.22
2019-03-15T11:40:31.694Z,2.50
2019-03-15T11:43:01.087Z,2.42
2019-03-15T11:45:30.478Z,3.00
2019-03-15T11:48:04.352Z,2.58
2019-03-15T11:50:31.038Z,2.37
2019-03-15T11:53:00.411Z,2.10
2019-03-15T11:55:29.810Z,2.22
2019-03-15T11:57:59.275Z,2.58
2019-03-15T12:00:28.789Z,2.58
2019-03-15T12:02:58.252Z,2.25
2019-03-15T12:05:27.703Z,1.90
2019-03-15T12:07:57.564Z,2.50
2019-03-15T12:10:26.967Z,2.47
2019-03-15T12:12:56.360Z,2.05
2019-03-15T12:15:25.806Z,2.10
2019-03-15T12:17:55.202Z,2.30
2019-03-15T12:20:38.152Z,2.10
2019-03-15T12:23:07.627Z,2.30
2019-03-15T12:25:37.111Z,2.12
2019-03-15T12:28:07.408Z,2.10
2019-03-15T12:30:45.594Z,2.80
2019-03-15T12:33:15.277Z,2.65
2019-03-15T12:35:46.404Z,2.00
2019-03-15T12:38:15.834Z,2.60
2019-03-15T12:40:45.212Z,2.47
2019-03-15T12:43:14.627Z,2.47
2019-03-15T12:45:43.991Z,2.47
2019-03-15T12:48:13.390Z,2.52
2019-03-15T12:50:42.773Z,2.20
2019-03-15T12:53:12.166Z,1.95
2019-03-15T12:55:41.554Z,1.80
2019-03-15T12:58:11.090Z,2.75
2019-03-15T13:00:40.470Z,2.55
2019-03-15T13:03:09.866Z,2.58
2019-03-15T13:05:39.351Z,1.95
2019-03-15T13:08:08.858Z,2.27
2019-03-15T13:10:38.255Z,2.20
2019-03-15T13:13:07.644Z,2.42
2019-03-15T13:15:37.154Z,2.25
2019-03-15T13:18:06.555Z,2.45
2019-03-15T13:20:36.126Z,2.27
2019-03-15T13:23:05.587Z,2.35
2019-03-15T13:25:34.970Z,2.35
2019-03-15T13:28:04.357Z,2.52
2019-03-15T13:30:33.743Z,2.17
2019-03-15T13:33:03.123Z,2.87
2019-03-15T13:35:32.514Z,2.40
2019-03-15T13:38:01.982Z,2.55
2019-03-15T13:40:31.385Z,2.45
2019-03-15T13:43:00.931Z,3.15
2019-03-15T13:45:30.332Z,2.47
2019-03-15T13:47:59.867Z,2.10
2019-03-15T13:50:29.255Z,2.60
2019-03-15T13:52:58.745Z,2.60
2019-03-15T13:55:28.145Z,2.83
2019-03-15T13:57:57.803Z,2.52
2019-03-15T14:00:27.280Z,2.70
2019-03-15T14:02:56.739Z,3.35
2019-03-15T14:05:26.134Z,2.95
2019-03-15T14:07:55.720Z,2.42
2019-03-15T14:10:25.162Z,2.52
2019-03-15T14:12:54.573Z,3.12
2019-03-15T14:15:24.049Z,2.85
2019-03-15T14:17:53.522Z,2.62
2019-03-15T14:20:22.988Z,2.55
2019-03-15T14:22:52.444Z,2.77
2019-03-15T14:25:26.553Z,2.92
2019-03-15T14:27:55.990Z,2.65
2019-03-15T14:30:25.493Z,2.55
2019-03-15T14:32:54.871Z,2.80
2019-03-15T14:35:25.337Z,3.30
2019-03-15T14:37:54.833Z,2.72
2019-03-15T14:40:24.513Z,2.30
2019-03-15T14:42:54.520Z,2.98
2019-03-15T14:45:24.214Z,2.67
2019-03-15T14:47:53.767Z,3.35
2019-03-15T14:50:23.176Z,2.45
2019-03-15T14:52:52.549Z,2.52
2019-03-15T14:55:22.099Z,2.98
2019-03-15T14:57:53.291Z,3.17
2019-03-15T15:00:22.662Z,2.50
2019-03-15T15:02:52.037Z,2.62
2019-03-15T15:05:21.760Z,2.60
2019-03-15T15:07:51.223Z,3.08
2019-03-15T15:10:20.594Z,2.05
2019-03-15T15:12:50.014Z,2.60
2019-03-15T15:15:20.464Z,2.40
2019-03-15T15:17:49.848Z,2.50
2019-03-15T15:20:19.250Z,2.85
2019-03-15T15:22:48.719Z,3.00
2019-03-15T15:25:18.608Z,2.72
2019-03-15T15:28:05.188Z,2.98
2019-03-15T15:30:34.610Z,2.12
2019-03-15T15:33:04.085Z,3.00
2019-03-15T15:35:33.660Z,2.22
2019-03-15T15:38:03.038Z,2.35
2019-03-15T15:40:32.428Z,2.12
2019-03-15T15:43:02.166Z,2.35
2019-03-15T15:45:31.558Z,2.55
2019-03-15T15:48:01.100Z,2.77
2019-03-15T15:50:30.538Z,3.20
2019-03-15T15:52:59.943Z,2.45
2019-03-15T15:55:29.344Z,1.87
2019-03-15T15:57:58.808Z,3.25
2019-03-15T16:00:28.266Z,2.37
2019-03-15T16:02:57.670Z,2.10
2019-03-15T16:05:27.058Z,1.98
2019-03-15T16:07:56.831Z,2.37
2019-03-15T16:10:26.331Z,1.77
2019-03-15T16:12:55.732Z,1.90
2019-03-15T16:15:26.115Z,1.90
2019-03-15T16:17:56.890Z,1.95
2019-03-15T16:20:26.344Z,1.98
2019-03-15T16:22:56.368Z,2.08
2019-03-15T16:25:25.744Z,2.08
2019-03-15T16:27:55.804Z,2.35
2019-03-15T16:30:25.469Z,2.33
2019-03-15T16:32:54.875Z,2.20
2019-03-15T16:35:24.280Z,2.60
2019-03-15T16:37:53.803Z,2.15
2019-03-15T16:40:23.323Z,2.10
2019-03-15T16:42:52.703Z,1.98
2019-03-15T16:45:27.154Z,2.70
2019-03-15T16:47:56.535Z,2.40
2019-03-15T16:50:26.020Z,2.77
2019-03-15T16:52:55.491Z,3.08
2019-03-15T16:55:24.923Z,2.15
2019-03-15T16:57:54.324Z,2.98
2019-03-15T17:00:23.877Z,2.40
2019-03-15T17:02:53.443Z,2.75
2019-03-15T17:05:22.920Z,2.60
2019-03-15T17:07:52.324Z,3.30
2019-03-15T17:10:21.699Z,2.80
2019-03-15T17:12:51.102Z,3.08
2019-03-15T17:15:30.060Z,2.65
2019-03-15T17:17:59.775Z,3.52
2019-03-15T17:20:29.232Z,3.20
2019-03-15T17:22:58.632Z,3.30
2019-03-15T17:25:28.035Z,3.12
2019-03-15T17:27:57.437Z,2.90
2019-03-15T17:30:27.213Z,2.77
2019-03-15T17:32:56.629Z,2.75
2019-03-15T17:35:26.111Z,3.05
2019-03-15T17:37:55.508Z,2.92
2019-03-15T17:40:24.916Z,2.75
2019-03-15T17:42:54.383Z,3.42
2019-03-15T17:45:23.838Z,3.12
2019-03-15T17:47:53.447Z,2.87
2019-03-15T17:50:24.323Z,3.33
2019-03-15T17:52:53.898Z,2.80
2019-03-15T17:55:23.353Z,2.80
2019-03-15T17:57:52.940Z,4.00
2019-03-15T18:00:38.523Z,4.37
2019-03-15T18:03:20.187Z,4.22
2019-03-15T18:05:59.180Z,3.30
2019-03-15T18:08:28.714Z,3.70
2019-03-15T18:10:58.195Z,3.80
2019-03-15T18:13:27.589Z,3.35
2019-03-15T18:15:56.974Z,3.55
2019-03-15T18:18:26.452Z,3.35
2019-03-15T18:20:55.834Z,3.42
2019-03-15T18:23:25.508Z,3.55
2019-03-15T18:25:55.978Z,3.37
2019-03-15T18:28:25.379Z,3.60
2019-03-15T18:30:54.860Z,3.67
2019-03-15T18:33:24.290Z,2.92
2019-03-15T18:35:53.805Z,3.12
2019-03-15T18:38:24.623Z,4.55
2019-03-15T18:40:54.058Z,3.62
2019-03-15T18:43:23.444Z,3.67
2019-03-15T18:45:53.037Z,4.33
2019-03-15T18:48:22.597Z,3.17
2019-03-15T18:50:51.996Z,4.03
2019-03-15T18:53:21.378Z,4.05
2019-03-15T18:55:50.825Z,3.55
2019-03-15T18:58:20.283Z,3.60
2019-03-15T19:00:49.754Z,3.10
2019-03-15T19:03:19.464Z,3.22
2019-03-15T19:05:49.011Z,3.83
2019-03-15T19:08:18.466Z,3.17
2019-03-15T19:10:47.846Z,3.77
2019-03-15T19:13:17.389Z,3.95
2019-03-15T19:15:46.903Z,3.20
2019-03-15T19:18:16.312Z,3.67
2019-03-15T19:20:45.821Z,3.45
2019-03-15T19:23:15.368Z,3.12
2019-03-15T19:25:45.818Z,4.35
2019-03-15T19:28:15.199Z,3.92
2019-03-15T19:30:44.676Z,4.62
2019-03-15T19:33:15.023Z,4.05
2019-03-15T19:35:44.408Z,5.70
2019-03-15T19:38:14.973Z,4.00
2019-03-15T19:40:44.475Z,3.60
2019-03-15T19:43:13.858Z,3.87
2019-03-15T19:45:43.251Z,3.85
2019-03-15T19:48:12.674Z,4.65
2019-03-15T19:50:42.115Z,4.67
2019-03-15T19:53:11.575Z,4.05
2019-03-15T19:55:41.067Z,3.87
2019-03-15T19:58:10.555Z,4.50
2019-03-15T20:00:40.123Z,4.60
2019-03-15T20:03:09.625Z,4.25
2019-03-15T20:05:39.011Z,4.58
2019-03-15T20:08:08.475Z,4.03
2019-03-15T20:10:37.872Z,5.30
2019-03-15T20:13:07.318Z,4.03
2019-03-15T20:15:36.881Z,4.37
2019-03-15T20:18:06.324Z,3.85
2019-03-15T20:20:35.711Z,3.83
2019-03-15T20:23:05.095Z,4.92
2019-03-15T20:25:34.490Z,3.77
2019-03-15T20:28:04.384Z,4.33
2019-03-15T20:30:34.203Z,8.58
2019-03-15T20:33:03.651Z,4.22
2019-03-15T20:35:33.048Z,5.00
2019-03-15T20:38:17.401Z,4.03
2019-03-15T20:40:46.810Z,4.83
2019-03-15T20:43:16.180Z,4.30
2019-03-15T20:45:45.640Z,4.50
2019-03-15T20:48:15.115Z,5.80
2019-03-15T20:50:47.115Z,4.00
2019-03-15T20:53:15.623Z,3.77
2019-03-15T20:55:45.132Z,4.33
2019-03-15T20:58:14.747Z,4.40
2019-03-15T21:00:45.204Z,4.30
2019-03-15T21:03:14.607Z,4.00
2019-03-15T21:05:43.987Z,4.83
2019-03-15T21:08:13.364Z,4.42
2019-03-15T21:11:02.176Z,4.47
2019-03-15T21:13:33.886Z,4.45
2019-03-15T21:16:04.639Z,4.45
2019-03-15T21:18:34.030Z,4.75
2019-03-15T21:21:03.492Z,4.33
2019-03-15T21:23:32.883Z,3.87
2019-03-15T21:26:02.279Z,3.83
2019-03-15T21:28:31.677Z,3.92
2019-03-15T21:31:01.166Z,4.22
2019-03-15T21:33:30.783Z,4.20
2019-03-15T21:36:00.192Z,3.65
2019-03-15T21:38:29.747Z,4.78
2019-03-15T21:40:59.165Z,3.62
2019-03-15T21:43:28.543Z,3.40
2019-03-15T21:45:57.947Z,4.10
2019-03-15T21:48:27.338Z,3.72
2019-03-15T21:50:56.799Z,4.25
2019-03-15T21:53:26.198Z,3.90
2019-03-15T21:55:55.647Z,4.37
2019-03-15T21:58:25.044Z,3.72
2019-03-15T22:01:02.361Z,3.52
2019-03-15T22:03:25.620Z,3.50
2019-03-15T22:05:55.078Z,3.08
2019-03-15T22:08:24.596Z,3.65
2019-03-15T22:10:54.050Z,3.10
2019-03-15T22:13:23.463Z,3.98
2019-03-15T22:15:53.035Z,3.80
2019-03-15T22:18:22.427Z,3.33
2019-03-15T22:20:51.895Z,3.98
2019-03-15T22:23:21.288Z,3.90
2019-03-15T22:25:50.699Z,3.60
2019-03-15T22:28:20.159Z,3.75
2019-03-15T22:30:49.551Z,3.00
2019-03-15T22:33:18.930Z,3.15
2019-03-15T22:35:48.323Z,3.17
2019-03-15T22:38:26.322Z,2.98
2019-03-15T22:40:48.803Z,3.37
2019-03-15T22:43:18.199Z,2.77
2019-03-15T22:45:47.577Z,3.77
2019-03-15T22:48:16.951Z,2.92
2019-03-15T22:50:46.406Z,2.52
2019-03-15T22:53:15.779Z,2.67
2019-03-15T22:55:45.164Z,2.50
2019-03-15T22:58:14.555Z,2.52
2019-03-15T23:00:45.131Z,2.40
2019-03-15T23:03:14.680Z,1.92
2019-03-15T23:05:44.068Z,2.42
2019-03-15T23:08:13.555Z,2.22
2019-03-15T23:10:42.929Z,2.60
2019-03-15T23:13:12.320Z,2.77
2019-03-15T23:15:41.692Z,2.05
2019-03-15T23:18:11.078Z,1.95
2019-03-15T23:20:40.444Z,2.77
2019-03-15T23:23:22.921Z,2.05
2019-03-15T23:25:41.048Z,1.80
2019-03-15T23:28:11.657Z,1.95
2019-03-15T23:30:41.112Z,1.80
2019-03-15T23:33:11.731Z,1.80
2019-03-15T23:35:53.552Z,1.75
2019-03-15T23:38:12.196Z,1.67
2019-03-15T23:40:41.575Z,1.98
2019-03-15T23:43:10.951Z,1.45
2019-03-15T23:45:40.335Z,1.80
2019-03-15T23:48:09.726Z,1.65
2019-03-15T23:50:39.093Z,1.70
2019-03-15T23:53:08.484Z,1.67
2019-03-15T23:55:37.873Z,1.40
2019-03-15T23:58:07.329Z,1.60
